createdAt,value
2023-01-03T00:00:02.091Z,3.02
2023-01-03T00:01:01.705Z,2.98
2023-01-03T00:02:02.384Z,3.01
2023-01-03T00:03:02.826Z,2.99
2023-01-03T00:04:02.440Z,3.00
2023-01-03T00:05:02.299Z,2.98
2023-01-03T00:06:02.305Z,2.97
2023-01-03T00:07:02.424Z,2.97
2023-01-03T00:08:02.211Z,2.96
2023-01-03T00:09:01.956Z,2.97
2023-01-03T00:10:02.464Z,2.97
2023-01-03T00:11:02.039Z,2.96
2023-01-03T00:12:01.998Z,2.94
2023-01-03T00:13:02.427Z,2.96
2023-01-03T00:14:01.944Z,2.95
2023-01-03T00:15:02.383Z,2.94
2023-01-03T00:16:01.855Z,2.96
2023-01-03T00:17:02.975Z,2.94
2023-01-03T00:18:02.497Z,2.95
2023-01-03T00:19:02.763Z,2.95
2023-01-03T00:20:02.566Z,2.95
2023-01-03T00:21:02.632Z,2.96
2023-01-03T00:22:02.396Z,2.93
2023-01-03T00:23:02.565Z,2.93
2023-01-03T00:24:02.614Z,2.91
2023-01-03T00:25:03.050Z,2.94
2023-01-03T00:26:02.548Z,2.92
2023-01-03T00:27:02.290Z,2.91
2023-01-03T00:28:02.086Z,2.92
2023-01-03T00:29:02.600Z,2.92
2023-01-03T00:30:02.093Z,2.93
2023-01-03T00:31:02.561Z,2.92
2023-01-03T00:32:02.755Z,2.92
2023-01-03T00:33:02.528Z,2.90
2023-01-03T00:34:02.304Z,2.90
2023-01-03T00:35:05.271Z,2.91
2023-01-03T00:36:02.284Z,2.91
2023-01-03T00:37:02.641Z,2.90
2023-01-03T00:38:03.135Z,2.87
2023-01-03T00:39:02.941Z,2.88
2023-01-03T00:40:02.684Z,2.88
2023-01-03T00:41:03.159Z,2.90
2023-01-03T00:42:03.005Z,2.88
2023-01-03T00:43:02.634Z,2.90
2023-01-03T00:44:02.961Z,2.89
2023-01-03T00:45:02.633Z,2.90
2023-01-03T00:46:03.258Z,2.88
2023-01-03T00:47:03.238Z,2.88
2023-01-03T00:48:03.309Z,2.87
2023-01-03T00:49:03.254Z,2.88
2023-01-03T00:50:03.023Z,2.86
2023-01-03T00:51:02.770Z,2.89
2023-01-03T00:52:02.664Z,2.88
2023-01-03T00:53:02.636Z,2.88
2023-01-03T00:54:02.486Z,2.89
2023-01-03T00:55:02.587Z,2.87
2023-01-03T00:56:02.356Z,2.86
2023-01-03T00:57:03.221Z,2.89
2023-01-03T00:58:02.995Z,2.89
2023-01-03T00:59:02.767Z,2.85
2023-01-03T01:00:03.210Z,2.87
2023-01-03T01:01:03.140Z,2.86
2023-01-03T01:02:03.138Z,2.84
2023-01-03T01:03:03.115Z,2.84
2023-01-03T01:04:03.237Z,2.87
2023-01-03T01:05:02.986Z,2.86
2023-01-03T01:06:03.441Z,2.85
2023-01-03T01:07:02.693Z,2.83
2023-01-03T01:08:02.518Z,2.87
2023-01-03T01:09:02.732Z,2.84
2023-01-03T01:10:03.121Z,2.83
2023-01-03T01:11:02.841Z,2.88
2023-01-03T01:12:02.625Z,2.84
2023-01-03T01:13:02.609Z,2.83
2023-01-03T01:14:02.211Z,2.85
2023-01-03T01:15:02.584Z,2.83
2023-01-03T01:16:02.587Z,2.84
2023-01-03T01:17:02.419Z,2.83
2023-01-03T01:18:02.183Z,2.81
2023-01-03T01:19:02.627Z,2.83
2023-01-03T01:20:02.473Z,2.83
2023-01-03T01:21:02.784Z,2.83
2023-01-03T01:22:03.049Z,2.82
2023-01-03T01:23:02.891Z,2.82
2023-01-03T01:24:03.418Z,2.82
2023-01-03T01:25:02.921Z,2.83
2023-01-03T01:26:02.823Z,2.82
2023-01-03T01:27:02.225Z,2.79
2023-01-03T01:28:02.304Z,2.79
2023-01-03T01:29:02.329Z,2.82
2023-01-03T01:30:02.120Z,2.79
2023-01-03T01:31:02.227Z,2.79
2023-01-03T01:32:02.649Z,2.82
2023-01-03T01:33:02.423Z,2.81
2023-01-03T01:34:02.808Z,2.81
2023-01-03T01:35:02.546Z,2.80
2023-01-03T01:36:02.381Z,2.80
2023-01-03T01:37:02.931Z,2.79
2023-01-03T01:38:03.296Z,2.76
2023-01-03T01:39:02.665Z,2.79
2023-01-03T01:40:03.073Z,2.79
2023-01-03T01:41:02.859Z,2.79
2023-01-03T01:42:02.293Z,2.79
2023-01-03T01:43:02.096Z,2.79
2023-01-03T01:44:02.143Z,2.79
2023-01-03T01:45:02.508Z,2.79
2023-01-03T01:46:02.118Z,2.77
2023-01-03T01:47:02.890Z,2.78
2023-01-03T01:48:02.515Z,2.79
2023-01-03T01:49:02.495Z,2.78
2023-01-03T01:50:02.947Z,2.77
2023-01-03T01:51:02.393Z,2.82
2023-01-03T01:52:02.979Z,2.78
2023-01-03T01:53:02.760Z,2.81
2023-01-03T01:54:02.686Z,2.76
2023-01-03T01:55:03.094Z,2.76
2023-01-03T01:56:02.690Z,2.75
2023-01-03T01:57:03.002Z,2.76
2023-01-03T01:58:02.954Z,2.76
2023-01-03T01:59:02.814Z,2.75
2023-01-03T02:00:03.308Z,2.77
2023-01-03T02:01:03.160Z,2.76
2023-01-03T02:02:02.798Z,2.80
2023-01-03T02:03:02.880Z,2.77
2023-01-03T02:04:02.486Z,2.78
2023-01-03T02:05:02.924Z,2.76
2023-01-03T02:06:02.451Z,2.74
2023-01-03T02:07:02.997Z,2.78
2023-01-03T02:08:02.725Z,2.73
2023-01-03T02:09:02.511Z,2.75
2023-01-03T02:10:02.927Z,2.73
2023-01-03T02:11:02.626Z,2.74
2023-01-03T02:12:02.767Z,2.74
2023-01-03T02:13:02.827Z,2.74
2023-01-03T02:14:03.200Z,2.77
2023-01-03T02:15:03.196Z,2.73
2023-01-03T02:16:03.344Z,2.74
2023-01-03T02:17:02.772Z,2.75
2023-01-03T02:18:02.282Z,2.75
2023-01-03T02:19:02.948Z,2.76
2023-01-03T02:20:02.468Z,2.75
2023-01-03T02:21:02.902Z,2.76
2023-01-03T02:22:03.086Z,2.77
2023-01-03T02:23:02.828Z,2.74
2023-01-03T02:24:02.644Z,2.73
2023-01-03T02:25:03.125Z,2.74
2023-01-03T02:26:02.929Z,2.72
2023-01-03T02:27:03.392Z,2.74
2023-01-03T02:28:03.213Z,2.74
2023-01-03T02:29:02.946Z,2.76
2023-01-03T02:30:03.449Z,2.73
2023-01-03T02:31:03.220Z,2.74
2023-01-03T02:32:02.351Z,2.74
2023-01-03T02:33:02.788Z,2.71
2023-01-03T02:34:02.531Z,2.74
2023-01-03T02:35:02.293Z,2.71
2023-01-03T02:36:02.623Z,2.72
2023-01-03T02:37:02.732Z,2.73
2023-01-03T02:38:03.143Z,2.74
2023-01-03T02:39:02.742Z,2.71
2023-01-03T02:40:03.192Z,2.73
2023-01-03T02:41:02.620Z,2.75
2023-01-03T02:42:02.788Z,2.72
2023-01-03T02:43:02.371Z,2.70
2023-01-03T02:44:02.711Z,2.72
2023-01-03T02:45:02.423Z,2.70
2023-01-03T02:46:02.311Z,2.70
2023-01-03T02:47:03.409Z,2.70
2023-01-03T02:48:02.915Z,2.68
2023-01-03T02:49:03.312Z,2.71
2023-01-03T02:50:02.719Z,2.75
2023-01-03T02:51:03.153Z,2.69
2023-01-03T02:52:03.611Z,2.69
2023-01-03T02:53:03.177Z,2.72
2023-01-03T02:54:03.115Z,2.69
2023-01-03T02:55:03.625Z,2.70
2023-01-03T02:56:03.180Z,2.68
2023-01-03T02:57:03.215Z,2.67
2023-01-03T02:58:02.745Z,2.71
2023-01-03T02:59:03.238Z,2.71
2023-01-03T03:00:02.764Z,2.72
2023-01-03T03:01:03.022Z,2.71
2023-01-03T03:02:01.990Z,2.68
2023-01-03T03:03:01.909Z,2.73
2023-01-03T03:04:02.291Z,2.70
2023-01-03T03:05:02.107Z,2.68
2023-01-03T03:06:01.788Z,2.70
2023-01-03T03:07:02.624Z,2.69
2023-01-03T03:08:02.387Z,2.70
2023-01-03T03:09:02.834Z,2.68
2023-01-03T03:10:02.280Z,2.69
2023-01-03T03:11:02.373Z,2.70
2023-01-03T03:12:01.884Z,2.69
2023-01-03T03:13:02.360Z,2.68
2023-01-03T03:14:01.801Z,2.69
2023-01-03T03:15:02.342Z,2.68
2023-01-03T03:16:02.135Z,2.67
2023-01-03T03:17:02.824Z,2.68
2023-01-03T03:18:02.685Z,2.69
2023-01-03T03:19:02.425Z,2.68
2023-01-03T03:20:06.485Z,2.65
2023-01-03T03:21:02.957Z,2.67
2023-01-03T03:22:02.541Z,2.68
2023-01-03T03:23:02.439Z,2.68
2023-01-03T03:24:02.927Z,2.68
2023-01-03T03:25:02.600Z,2.67
2023-01-03T03:26:03.044Z,2.66
2023-01-03T03:27:01.680Z,2.67
2023-01-03T03:28:02.111Z,2.68
2023-01-03T03:29:01.631Z,2.66
2023-01-03T03:30:02.140Z,2.69
2023-01-03T03:31:01.622Z,2.67
2023-01-03T03:32:02.461Z,2.68
2023-01-03T03:33:02.116Z,2.70
2023-01-03T03:34:02.482Z,2.69
2023-01-03T03:35:02.086Z,2.67
2023-01-03T03:36:02.525Z,2.67
2023-01-03T03:37:01.859Z,2.68
2023-01-03T03:38:01.600Z,2.67
2023-01-03T03:39:02.024Z,2.70
2023-01-03T03:40:02.086Z,2.69
2023-01-03T03:41:01.595Z,2.65
2023-01-03T03:42:02.181Z,2.69
2023-01-03T03:43:01.952Z,2.66
2023-01-03T03:44:02.369Z,2.68
2023-01-03T03:45:02.590Z,2.68
2023-01-03T03:46:02.446Z,2.67
2023-01-03T03:47:05.680Z,2.68
2023-01-03T03:48:03.025Z,2.69
2023-01-03T03:49:02.531Z,2.66
2023-01-03T03:50:02.975Z,2.64
2023-01-03T03:51:02.820Z,2.65
2023-01-03T03:52:02.509Z,2.65
2023-01-03T03:53:02.355Z,2.66
2023-01-03T03:54:02.116Z,2.67
2023-01-03T03:55:02.561Z,2.66
2023-01-03T03:56:02.232Z,2.65
2023-01-03T03:57:01.761Z,2.65
2023-01-03T03:58:01.906Z,2.64
2023-01-03T03:59:01.905Z,2.67
2023-01-03T04:00:01.703Z,2.66
2023-01-03T04:01:01.492Z,2.67
2023-01-03T04:02:02.051Z,2.65
2023-01-03T04:03:02.139Z,2.64
2023-01-03T04:04:01.739Z,2.63
2023-01-03T04:05:01.561Z,2.60
2023-01-03T04:06:02.032Z,2.60
2023-01-03T04:07:02.441Z,2.55
2023-01-03T04:08:02.265Z,2.56
2023-01-03T04:09:02.779Z,2.55
2023-01-03T04:10:02.330Z,2.52
2023-01-03T04:11:02.293Z,2.53
2023-01-03T04:12:01.869Z,2.55
2023-01-03T04:13:02.149Z,2.53
2023-01-03T04:14:01.722Z,2.53
2023-01-03T04:15:02.142Z,2.55
2023-01-03T04:16:01.856Z,2.55
2023-01-03T04:17:01.806Z,2.53
2023-01-03T04:18:02.371Z,2.52
2023-01-03T04:19:01.945Z,2.52
2023-01-03T04:20:02.382Z,2.51
2023-01-03T04:21:01.840Z,2.53
2023-01-03T04:22:02.170Z,2.51
2023-01-03T04:23:02.457Z,2.52
2023-01-03T04:24:02.381Z,2.50
2023-01-03T04:25:02.525Z,2.50
2023-01-03T04:26:02.121Z,2.51
2023-01-03T04:27:02.579Z,2.51
2023-01-03T04:28:02.879Z,2.51
2023-01-03T04:29:02.362Z,2.52
2023-01-03T04:30:02.759Z,2.50
2023-01-03T04:31:02.237Z,2.50
2023-01-03T04:32:02.760Z,2.50
2023-01-03T04:33:02.335Z,2.48
2023-01-03T04:34:02.795Z,2.51
2023-01-03T04:35:02.532Z,2.50
2023-01-03T04:36:02.760Z,2.48
2023-01-03T04:37:02.346Z,2.50
2023-01-03T04:38:02.097Z,2.49
2023-01-03T04:39:02.541Z,2.49
2023-01-03T04:40:02.051Z,2.48
2023-01-03T04:41:02.478Z,2.47
2023-01-03T04:42:01.580Z,2.47
2023-01-03T04:43:01.980Z,2.47
2023-01-03T04:44:01.783Z,2.48
2023-01-03T04:45:01.706Z,2.47
2023-01-03T04:46:01.611Z,2.46
2023-01-03T04:47:02.031Z,2.50
2023-01-03T04:48:02.144Z,2.49
2023-01-03T04:49:01.944Z,2.49
2023-01-03T04:50:01.706Z,2.47
2023-01-03T04:51:02.065Z,2.48
2023-01-03T04:52:02.483Z,2.47
2023-01-03T04:53:02.238Z,2.46
2023-01-03T04:54:02.677Z,2.46
2023-01-03T04:55:02.179Z,2.46
2023-01-03T04:56:02.624Z,2.48
2023-01-03T04:57:02.206Z,2.48
2023-01-03T04:58:01.980Z,2.48
2023-01-03T04:59:01.733Z,2.48
2023-01-03T05:00:01.909Z,2.47
2023-01-03T05:01:01.989Z,3.96
2023-01-03T05:02:02.597Z,4.18
2023-01-03T05:03:02.216Z,4.31
2023-01-03T05:04:02.063Z,4.43
2023-01-03T05:05:01.889Z,4.54
2023-01-03T05:06:02.396Z,4.65
2023-01-03T05:07:02.583Z,4.71
2023-01-03T05:08:02.340Z,4.78
2023-01-03T05:09:02.124Z,4.82
2023-01-03T05:10:02.537Z,4.89
2023-01-03T05:11:02.579Z,4.93
2023-01-03T05:12:03.159Z,4.97
2023-01-03T05:13:02.918Z,5.01
2023-01-03T05:14:02.694Z,5.03
2023-01-03T05:15:02.859Z,5.06
2023-01-03T05:16:02.714Z,5.10
2023-01-03T05:17:02.436Z,5.10
2023-01-03T05:18:02.304Z,5.23
2023-01-03T05:19:01.889Z,5.20
2023-01-03T05:20:02.339Z,5.20
2023-01-03T05:21:01.827Z,5.21
2023-01-03T05:22:02.886Z,5.22
2023-01-03T05:23:02.547Z,5.21
2023-01-03T05:24:02.422Z,5.19
2023-01-03T05:25:02.315Z,5.22
2023-01-03T05:26:02.794Z,5.26
2023-01-03T05:27:01.606Z,5.30
2023-01-03T05:28:02.268Z,5.31
2023-01-03T05:29:01.795Z,5.34
2023-01-03T05:30:02.202Z,5.33
2023-01-03T05:31:01.628Z,5.37
2023-01-03T05:32:02.800Z,5.36
2023-01-03T05:33:02.263Z,5.37
2023-01-03T05:34:02.719Z,5.40
2023-01-03T05:35:02.198Z,5.42
2023-01-03T05:36:02.694Z,5.43
2023-01-03T05:37:03.098Z,5.41
2023-01-03T05:38:02.609Z,5.42
2023-01-03T05:39:03.089Z,5.42
2023-01-03T05:40:02.599Z,5.45
2023-01-03T05:41:02.986Z,5.47
2023-01-03T05:42:03.017Z,5.45
2023-01-03T05:43:02.883Z,5.47
2023-01-03T05:44:03.014Z,5.48
2023-01-03T05:45:02.814Z,5.48
2023-01-03T05:46:02.717Z,5.49
2023-01-03T05:47:01.940Z,5.47
2023-01-03T05:48:02.356Z,5.49
2023-01-03T05:49:02.061Z,5.50
2023-01-03T05:50:01.892Z,5.52
2023-01-03T05:51:02.416Z,5.52
2023-01-03T05:52:01.974Z,5.52
2023-01-03T05:53:02.403Z,5.52
2023-01-03T05:54:02.395Z,5.54
2023-01-03T05:55:02.200Z,5.53
2023-01-03T05:56:02.021Z,5.54
2023-01-03T05:57:02.787Z,5.53
2023-01-03T05:58:03.036Z,5.55
2023-01-03T05:59:02.975Z,5.53
2023-01-03T06:00:02.532Z,5.56
2023-01-03T06:01:02.633Z,5.50
2023-01-03T06:02:02.250Z,5.50
2023-01-03T06:03:02.256Z,5.50
2023-01-03T06:04:02.705Z,5.51
2023-01-03T06:05:02.396Z,5.49
2023-01-03T06:06:02.313Z,5.51
2023-01-03T06:07:02.605Z,5.51
2023-01-03T06:08:02.510Z,5.49
2023-01-03T06:09:02.305Z,5.52
2023-01-03T06:10:02.716Z,5.52
2023-01-03T06:11:02.314Z,5.53
2023-01-03T06:12:02.533Z,5.51
2023-01-03T06:13:02.563Z,5.52
2023-01-03T06:14:02.375Z,5.53
2023-01-03T06:15:02.849Z,5.53
2023-01-03T06:16:02.882Z,5.60
2023-01-03T06:17:02.105Z,5.58
2023-01-03T06:18:01.871Z,5.59
2023-01-03T06:19:01.990Z,5.60
2023-01-03T06:20:01.843Z,5.59
2023-01-03T06:21:02.038Z,5.59
2023-01-03T06:22:08.638Z,5.61
2023-01-03T06:23:02.738Z,5.58
2023-01-03T06:24:02.603Z,5.60
2023-01-03T06:25:02.387Z,5.59
2023-01-03T06:26:02.944Z,5.60
2023-01-03T06:27:02.919Z,5.60
2023-01-03T06:28:03.372Z,5.60
2023-01-03T06:29:02.927Z,5.60
2023-01-03T06:30:02.915Z,5.58
2023-01-03T06:31:02.824Z,5.59
2023-01-03T06:32:08.932Z,5.58
2023-01-03T06:33:02.620Z,5.62
2023-01-03T06:34:02.508Z,5.61
2023-01-03T06:35:03.057Z,5.58
2023-01-03T06:36:02.893Z,5.61
2023-01-03T06:37:02.732Z,5.61
2023-01-03T06:38:02.537Z,5.60
2023-01-03T06:39:02.995Z,5.61
2023-01-03T06:40:02.774Z,5.61
2023-01-03T06:41:02.701Z,5.61
2023-01-03T06:42:02.271Z,5.61
2023-01-03T06:43:02.512Z,5.60
2023-01-03T06:44:02.018Z,5.60
2023-01-03T06:45:02.563Z,5.60
2023-01-03T06:46:02.182Z,5.62
2023-01-03T06:47:02.553Z,5.60
2023-01-03T06:48:02.542Z,5.62
2023-01-03T06:49:02.597Z,5.62
2023-01-03T06:50:02.357Z,5.59
2023-01-03T06:51:02.762Z,5.60
2023-01-03T06:52:01.862Z,5.59
2023-01-03T06:53:02.415Z,5.61
2023-01-03T06:54:02.237Z,5.61
2023-01-03T06:55:02.469Z,5.60
2023-01-03T06:56:02.434Z,5.62
2023-01-03T06:57:02.722Z,5.63
2023-01-03T06:58:03.004Z,5.61
2023-01-03T06:59:02.690Z,5.60
2023-01-03T07:00:02.995Z,5.63
2023-01-03T07:01:03.110Z,5.62
2023-01-03T07:02:02.268Z,5.60
2023-01-03T07:03:08.898Z,5.62
2023-01-03T07:04:02.391Z,5.60
2023-01-03T07:05:01.960Z,5.61
2023-01-03T07:06:02.429Z,5.61
2023-01-03T07:07:02.481Z,5.62
2023-01-03T07:08:02.336Z,5.62
2023-01-03T07:09:02.337Z,5.62
2023-01-03T07:10:02.830Z,5.59
2023-01-03T07:11:02.486Z,5.61
2023-01-03T07:12:02.940Z,5.62
2023-01-03T07:13:02.665Z,5.62
2023-01-03T07:14:03.107Z,5.63
2023-01-03T07:15:02.622Z,5.60
2023-01-03T07:16:03.177Z,5.62
2023-01-03T07:17:02.390Z,5.63
2023-01-03T07:18:01.860Z,5.59
2023-01-03T07:19:02.405Z,5.60
2023-01-03T07:20:02.268Z,5.64
2023-01-03T07:21:02.350Z,5.63
2023-01-03T07:22:02.727Z,4.97
2023-01-03T07:23:02.692Z,4.80
2023-01-03T07:24:02.518Z,4.71
2023-01-03T07:25:02.708Z,4.62
2023-01-03T07:26:02.658Z,4.55
2023-01-03T07:27:02.330Z,4.47
2023-01-03T07:28:07.132Z,4.41
2023-01-03T07:29:01.901Z,4.35
2023-01-03T07:30:01.833Z,4.34
2023-01-03T07:31:02.229Z,4.27
2023-01-03T07:32:02.649Z,4.20
2023-01-03T07:33:02.512Z,4.18
2023-01-03T07:34:02.608Z,4.15
2023-01-03T07:35:02.616Z,4.11
2023-01-03T07:36:09.323Z,4.06
2023-01-03T07:37:03.171Z,4.03
2023-01-03T07:38:03.012Z,3.99
2023-01-03T07:39:02.894Z,3.97
2023-01-03T07:40:02.985Z,3.94
2023-01-03T07:41:02.865Z,3.92
2023-01-03T07:42:02.730Z,3.89
2023-01-03T07:43:02.385Z,3.85
2023-01-03T07:44:02.260Z,3.84
2023-01-03T07:45:02.703Z,3.80
2023-01-03T07:46:02.693Z,3.78
2023-01-03T07:47:02.413Z,3.75
2023-01-03T07:48:01.929Z,3.73
2023-01-03T07:49:05.163Z,3.71
2023-01-03T07:50:02.189Z,3.67
2023-01-03T07:51:02.150Z,3.66
2023-01-03T07:52:02.670Z,3.66
2023-01-03T07:53:02.423Z,3.62
2023-01-03T07:54:02.491Z,3.61
2023-01-03T07:55:02.375Z,3.58
2023-01-03T07:56:04.450Z,3.57
2023-01-03T07:57:02.869Z,3.56
2023-01-03T07:58:02.204Z,3.52
2023-01-03T07:59:02.818Z,3.52
2023-01-03T08:00:02.288Z,3.50
2023-01-03T08:01:02.506Z,3.47
2023-01-03T08:02:02.999Z,3.47
2023-01-03T08:03:02.769Z,3.44
2023-01-03T08:04:02.515Z,3.42
2023-01-03T08:05:02.473Z,3.43
2023-01-03T08:06:02.439Z,3.40
2023-01-03T08:07:02.882Z,3.37
2023-01-03T08:08:03.213Z,3.38
2023-01-03T08:09:06.201Z,3.35
2023-01-03T08:10:03.047Z,3.33
2023-01-03T08:11:03.230Z,3.33
2023-01-03T08:12:02.029Z,3.32
2023-01-03T08:13:02.563Z,3.30
2023-01-03T08:14:02.325Z,3.30
2023-01-03T08:15:02.109Z,3.26
2023-01-03T08:16:02.053Z,3.28
2023-01-03T08:17:02.935Z,3.26
2023-01-03T08:18:02.345Z,3.25
2023-01-03T08:19:02.917Z,3.25
2023-01-03T08:20:02.314Z,3.21
2023-01-03T08:21:02.594Z,3.21
2023-01-03T08:22:02.380Z,3.21
2023-01-03T08:23:02.697Z,3.19
2023-01-03T08:24:02.543Z,3.18
2023-01-03T08:25:02.751Z,3.16
2023-01-03T08:26:02.717Z,3.16
2023-01-03T08:27:02.739Z,3.15
2023-01-03T08:28:03.118Z,3.15
2023-01-03T08:29:03.167Z,3.14
2023-01-03T08:30:03.059Z,3.13
2023-01-03T08:31:03.134Z,3.12
2023-01-03T08:32:02.297Z,3.11
2023-01-03T08:33:02.781Z,3.11
2023-01-03T08:34:02.668Z,3.10
2023-01-03T08:35:02.595Z,3.09
2023-01-03T08:36:02.546Z,3.07
2023-01-03T08:37:02.674Z,3.07
2023-01-03T08:38:03.232Z,3.07
2023-01-03T08:39:02.901Z,3.04
2023-01-03T08:40:03.433Z,3.06
2023-01-03T08:41:02.867Z,3.01
2023-01-03T08:42:02.729Z,3.04
2023-01-03T08:43:02.901Z,3.01
2023-01-03T08:44:02.803Z,3.02
2023-01-03T08:45:02.769Z,3.01
2023-01-03T08:46:03.268Z,3.01
2023-01-03T08:47:02.965Z,3.01
2023-01-03T08:48:02.826Z,2.99
2023-01-03T08:49:02.814Z,2.98
2023-01-03T08:50:03.457Z,3.00
2023-01-03T08:51:03.042Z,2.98
2023-01-03T08:52:02.033Z,2.95
2023-01-03T08:53:02.468Z,2.96
2023-01-03T08:54:02.374Z,2.96
2023-01-03T08:55:02.434Z,2.95
2023-01-03T08:56:02.336Z,2.94
2023-01-03T08:57:02.595Z,2.90
2023-01-03T08:58:02.650Z,2.93
2023-01-03T08:59:02.612Z,2.90
2023-01-03T09:00:02.543Z,2.91
2023-01-03T09:01:02.236Z,2.90
2023-01-03T09:02:03.100Z,2.90
2023-01-03T09:03:03.354Z,2.90
2023-01-03T09:04:02.868Z,2.89
2023-01-03T09:05:02.992Z,2.88
2023-01-03T09:06:02.961Z,2.88
2023-01-03T09:07:03.208Z,2.88
2023-01-03T09:08:03.121Z,2.87
2023-01-03T09:09:03.339Z,2.86
2023-01-03T09:10:03.252Z,2.86
2023-01-03T09:11:03.151Z,2.86
2023-01-03T09:12:02.735Z,2.83
2023-01-03T09:13:02.996Z,2.83
2023-01-03T09:14:02.761Z,2.83
2023-01-03T09:15:02.544Z,2.83
2023-01-03T09:16:02.517Z,2.82
2023-01-03T09:17:02.773Z,2.80
2023-01-03T09:18:02.789Z,2.82
2023-01-03T09:19:02.798Z,2.81
2023-01-03T09:20:02.618Z,2.79
2023-01-03T09:21:02.584Z,2.78
2023-01-03T09:22:03.887Z,2.80
2023-01-03T09:23:03.493Z,2.78
2023-01-03T09:24:03.505Z,2.77
2023-01-03T09:25:03.427Z,2.77
2023-01-03T09:26:03.508Z,2.77
2023-01-03T09:27:02.501Z,2.76
2023-01-03T09:28:02.508Z,2.74
2023-01-03T09:29:02.548Z,2.74
2023-01-03T09:30:02.363Z,2.75
2023-01-03T09:31:02.361Z,2.75
2023-01-03T09:32:03.189Z,2.75
2023-01-03T09:33:03.216Z,2.74
2023-01-03T09:34:03.137Z,2.72
2023-01-03T09:35:03.090Z,2.72
2023-01-03T09:36:03.002Z,2.73
2023-01-03T09:37:02.514Z,2.71
2023-01-03T09:38:02.747Z,2.69
2023-01-03T09:39:02.654Z,2.69
2023-01-03T09:40:02.532Z,2.71
2023-01-03T09:41:02.660Z,2.71
2023-01-03T09:42:02.838Z,2.70
2023-01-03T09:43:02.928Z,2.69
2023-01-03T09:44:02.957Z,2.67
2023-01-03T09:45:03.062Z,2.66
2023-01-03T09:46:03.070Z,2.65
2023-01-03T09:47:03.426Z,2.66
2023-01-03T09:48:03.112Z,2.67
2023-01-03T09:49:03.182Z,2.65
2023-01-03T09:51:19.764Z,2.64
2023-01-03T09:52:03.364Z,2.64
2023-01-03T09:53:03.160Z,2.64
2023-01-03T09:54:03.501Z,2.63
2023-01-03T09:55:03.452Z,2.62
2023-01-03T09:56:03.440Z,2.62
2023-01-03T09:57:02.817Z,2.62
2023-01-03T09:58:02.952Z,2.61
2023-01-03T09:59:02.902Z,2.62
2023-01-03T10:00:02.967Z,2.60
2023-01-03T10:01:03.081Z,2.60
2023-01-03T10:02:02.513Z,2.58
2023-01-03T10:03:02.588Z,2.58
2023-01-03T10:04:02.505Z,2.56
2023-01-03T10:05:02.287Z,2.57
2023-01-03T10:06:02.299Z,2.58
2023-01-03T10:07:02.844Z,2.57
2023-01-03T10:08:02.981Z,2.56
2023-01-03T10:09:02.881Z,2.56
2023-01-03T10:10:02.486Z,2.53
2023-01-03T10:11:02.528Z,2.56
2023-01-03T10:12:02.233Z,2.55
2023-01-03T10:13:02.195Z,2.55
2023-01-03T10:14:02.534Z,2.54
2023-01-03T10:15:02.366Z,2.52
2023-01-03T10:16:02.389Z,2.56
2023-01-03T10:17:02.544Z,2.53
2023-01-03T10:18:02.601Z,2.53
2023-01-03T10:19:02.267Z,2.53
2023-01-03T10:20:02.503Z,2.53
2023-01-03T10:21:02.561Z,2.52
2023-01-03T10:22:02.943Z,2.52
2023-01-03T10:23:03.275Z,2.50
2023-01-03T10:24:03.136Z,2.52
2023-01-03T10:25:02.760Z,2.52
2023-01-03T10:26:02.907Z,2.52
2023-01-03T10:27:02.455Z,2.50
2023-01-03T10:28:02.202Z,2.50
2023-01-03T10:29:02.057Z,2.51
2023-01-03T10:30:02.521Z,2.50
2023-01-03T10:31:07.765Z,2.49
2023-01-03T10:32:02.740Z,2.49
2023-01-03T10:33:02.547Z,2.48
2023-01-03T10:34:02.486Z,2.47
2023-01-03T10:35:02.658Z,2.48
2023-01-03T10:36:02.427Z,2.48
2023-01-03T10:37:03.280Z,2.47
2023-01-03T10:38:03.062Z,2.49
2023-01-03T10:39:02.903Z,2.46
2023-01-03T10:40:03.196Z,2.46
2023-01-03T10:41:03.162Z,2.47
2023-01-03T10:42:02.775Z,2.45
2023-01-03T10:43:02.651Z,2.46
2023-01-03T10:44:02.710Z,2.47
2023-01-03T10:45:02.770Z,2.44
2023-01-03T10:46:02.575Z,2.43
2023-01-03T10:47:03.210Z,2.42
2023-01-03T10:48:02.882Z,2.42
2023-01-03T10:49:31.864Z,2.43
2023-01-03T10:50:02.961Z,2.45
2023-01-03T10:51:03.009Z,2.43
2023-01-03T10:52:02.782Z,2.45
2023-01-03T10:53:02.542Z,2.45
2023-01-03T10:54:02.564Z,2.44
2023-01-03T10:55:02.621Z,2.44
2023-01-03T10:56:02.509Z,2.43
2023-01-03T10:57:02.815Z,2.44
2023-01-03T10:58:02.348Z,2.44
2023-01-03T10:59:02.166Z,2.44
2023-01-03T11:00:02.858Z,2.43
2023-01-03T11:01:02.660Z,2.43
2023-01-03T11:02:01.994Z,2.42
2023-01-03T11:03:01.960Z,2.43
2023-01-03T11:04:02.122Z,2.43
2023-01-03T11:05:01.743Z,2.43
2023-01-03T11:06:01.907Z,2.42
2023-01-03T11:07:02.099Z,2.41
2023-01-03T11:08:02.427Z,2.43
2023-01-03T11:09:02.177Z,2.42
2023-01-03T11:10:02.668Z,2.44
2023-01-03T11:11:02.288Z,2.43
2023-01-03T11:12:02.491Z,2.43
2023-01-03T11:13:02.594Z,2.41
2023-01-03T11:14:02.601Z,2.41
2023-01-03T11:15:02.769Z,2.41
2023-01-03T11:16:02.954Z,2.41
2023-01-03T11:17:02.694Z,2.42
2023-01-03T11:18:02.648Z,2.41
2023-01-03T11:19:03.203Z,2.41
2023-01-03T11:20:02.940Z,2.42
2023-01-03T11:21:03.254Z,2.41
2023-01-03T11:22:02.943Z,2.42
2023-01-03T11:23:02.221Z,2.39
2023-01-03T11:24:02.214Z,2.42
2023-01-03T11:25:02.271Z,2.40
2023-01-03T11:26:02.333Z,2.42
2023-01-03T11:27:02.342Z,2.39
2023-01-03T11:28:02.713Z,2.41
2023-01-03T11:29:02.776Z,2.40
2023-01-03T11:30:02.784Z,2.40
2023-01-03T11:31:02.744Z,2.41
2023-01-03T11:32:02.770Z,2.41
2023-01-03T11:33:01.985Z,2.41
2023-01-03T11:34:02.076Z,2.40
2023-01-03T11:36:02.063Z,2.39
2023-01-03T11:37:02.073Z,2.39
2023-01-03T11:38:02.821Z,2.38
2023-01-03T11:39:02.770Z,2.38
2023-01-03T11:40:03.161Z,2.38
2023-01-03T11:41:02.883Z,2.40
2023-01-03T11:42:02.497Z,2.38
2023-01-03T11:43:01.965Z,2.37
2023-01-03T11:44:02.519Z,2.35
2023-01-03T11:45:02.231Z,2.37
2023-01-03T11:46:02.404Z,2.36
2023-01-03T11:47:02.475Z,2.36
2023-01-03T11:48:03.001Z,2.36
2023-01-03T11:49:02.838Z,2.36
2023-01-03T11:50:02.835Z,2.37
2023-01-03T11:51:02.847Z,2.33
2023-01-03T11:52:03.180Z,2.35
2023-01-03T11:53:02.552Z,2.34
2023-01-03T11:54:02.866Z,2.35
2023-01-03T11:55:02.553Z,2.36
2023-01-03T11:56:02.512Z,2.33
2023-01-03T11:57:02.493Z,2.33
2023-01-03T11:58:01.879Z,2.33
2023-01-03T11:59:01.775Z,2.32
2023-01-03T12:00:01.909Z,2.32
2023-01-03T12:01:02.023Z,2.34
2023-01-03T12:02:02.126Z,2.31
2023-01-03T12:03:02.979Z,2.30
2023-01-03T12:04:02.892Z,2.31
2023-01-03T12:05:02.444Z,2.30
2023-01-03T12:06:02.683Z,2.29
2023-01-03T12:07:29.058Z,2.27
2023-01-03T12:08:02.310Z,2.30
2023-01-03T12:09:02.218Z,2.30
2023-01-03T12:10:02.206Z,2.31
2023-01-03T12:11:02.036Z,2.29
2023-01-03T12:12:02.398Z,2.28
2023-01-03T12:13:02.507Z,2.30
2023-01-03T12:14:02.507Z,2.28
2023-01-03T12:15:02.710Z,2.31
2023-01-03T12:16:02.580Z,2.29
2023-01-03T12:17:02.416Z,2.30
2023-01-03T12:18:01.709Z,2.28
2023-01-03T12:19:04.494Z,2.29
2023-01-03T12:20:01.706Z,2.29
2023-01-03T12:21:01.745Z,2.29
2023-01-03T12:22:02.315Z,2.31
2023-01-03T12:23:02.676Z,2.29
2023-01-03T12:24:02.738Z,2.27
2023-01-03T12:25:05.646Z,2.28
2023-01-03T12:26:02.740Z,2.31
2023-01-03T12:27:02.662Z,2.29
2023-01-03T12:28:02.031Z,2.28
2023-01-03T12:29:01.910Z,2.28
2023-01-03T12:30:02.023Z,2.28
2023-01-03T12:31:01.910Z,2.29
2023-01-03T12:32:02.005Z,2.27
2023-01-03T12:33:02.038Z,2.29
2023-01-03T12:34:02.001Z,2.28
2023-01-03T12:35:02.045Z,2.27
2023-01-03T12:36:02.104Z,2.29
2023-01-03T12:37:02.390Z,2.27
2023-01-03T12:38:02.934Z,2.28
2023-01-03T12:39:02.931Z,2.25
2023-01-03T12:40:02.962Z,2.28
2023-01-03T12:41:02.763Z,2.28
2023-01-03T12:42:03.115Z,2.27
2023-01-03T12:43:02.013Z,2.28
2023-01-03T12:44:01.988Z,2.26
2023-01-03T12:45:02.006Z,2.26
2023-01-03T12:46:06.940Z,2.27
2023-01-03T12:47:02.044Z,2.27
2023-01-03T12:48:02.770Z,2.27
2023-01-03T12:49:02.090Z,2.25
2023-01-03T12:50:02.202Z,2.27
2023-01-03T12:51:02.159Z,2.24
2023-01-03T12:52:02.486Z,2.24
2023-01-03T12:53:03.148Z,2.25
2023-01-03T12:54:02.546Z,2.25
2023-01-03T12:55:02.516Z,2.27
2023-01-03T12:56:03.022Z,2.25
2023-01-03T12:57:03.139Z,2.23
2023-01-03T12:58:02.556Z,2.25
2023-01-03T12:59:02.098Z,2.25
2023-01-03T13:00:01.919Z,2.23
2023-01-03T13:01:01.951Z,2.25
2023-01-03T13:02:02.722Z,2.25
2023-01-03T13:03:02.895Z,2.24
2023-01-03T13:04:02.401Z,2.24
2023-01-03T13:05:02.238Z,2.26
2023-01-03T13:06:02.291Z,2.25
2023-01-03T13:07:02.251Z,2.23
2023-01-03T13:08:02.797Z,2.24
2023-01-03T13:09:02.662Z,2.22
2023-01-03T13:10:02.242Z,2.23
2023-01-03T13:11:02.684Z,2.22
2023-01-03T13:12:02.241Z,2.23
2023-01-03T13:13:02.738Z,2.21
2023-01-03T13:14:02.811Z,2.20
2023-01-03T13:15:02.605Z,2.20
2023-01-03T13:16:02.512Z,2.21
2023-01-03T13:17:02.468Z,2.22
2023-01-03T13:18:02.428Z,2.20
2023-01-03T13:19:03.100Z,2.21
2023-01-03T13:20:02.578Z,2.22